Time;durP1;ratioP1;P1;durP2;ratioP2;P2;SDS_P1;SDS_P2;PMS_P1;PMS_P2;Temp;Humidity;BMP_temperature;BMP_pressure;BME280_temperature;BME280_humidity;BME280_pressure;Samples;Min_cycle;Max_cycle;Signal;HPM_P1;HPM_P2
2021/05/11 00:01:47;;;;;;;2.60;1.00;;;15.60;97.10;;;;;;5115063;28;20052;-78
2021/05/11 00:04:14;;;;;;;2.22;0.98;;;15.60;97.10;;;;;;5115178;28;20086;-78
2021/05/11 00:06:41;;;;;;;2.17;0.90;;;15.60;97.10;;;;;;5106943;28;20075;-78
2021/05/11 00:09:08;;;;;;;2.15;1.00;;;15.60;97.00;;;;;;5114573;28;20082;-78
2021/05/11 00:11:36;;;;;;;2.33;0.90;;;15.60;97.00;;;;;;5114945;28;20130;-78
2021/05/11 00:14:06;;;;;;;1.98;0.90;;;15.60;96.90;;;;;;5115817;28;20083;-77
2021/05/11 00:16:33;;;;;;;1.92;0.90;;;15.60;96.90;;;;;;5115451;28;20040;-78
2021/05/11 00:19:02;;;;;;;2.45;1.13;;;15.60;96.80;;;;;;5115015;28;20104;-78
2021/05/11 00:21:29;;;;;;;2.58;1.00;;;15.50;96.80;;;;;;5097137;28;20401;-78
2021/05/11 00:23:56;;;;;;;2.05;0.90;;;15.50;96.80;;;;;;5096890;28;20140;-78
2021/05/11 00:26:23;;;;;;;1.98;1.00;;;15.50;96.90;;;;;;5114071;28;20131;-78
2021/05/11 00:28:50;;;;;;;2.45;1.00;;;15.40;97.00;;;;;;5114701;28;20075;-77
2021/05/11 00:31:17;;;;;;;2.45;0.73;;;15.40;97.00;;;;;;5096189;28;20115;-78
2021/05/11 00:33:44;;;;;;;1.95;0.70;;;15.30;97.20;;;;;;5080141;28;20048;-77
2021/05/11 00:36:11;;;;;;;1.90;0.75;;;15.30;97.30;;;;;;5096661;28;20545;-77
2021/05/11 00:38:37;;;;;;;6.00;2.60;;;15.30;97.50;;;;;;5114163;28;20126;-77
2021/05/11 00:41:04;;;;;;;3.03;1.10;;;15.30;97.50;;;;;;5114350;28;20138;-77
2021/05/11 00:43:31;;;;;;;2.60;1.00;;;15.30;97.50;;;;;;5114018;28;20070;-77
2021/05/11 00:45:59;;;;;;;1.73;0.70;;;15.20;97.40;;;;;;5096327;28;20089;-77
2021/05/11 00:48:25;;;;;;;2.38;0.70;;;15.20;97.80;;;;;;5114653;28;20108;-78
2021/05/11 00:50:52;;;;;;;1.40;0.77;;;15.10;97.60;;;;;;5113748;28;20138;-78
2021/05/11 00:53:19;;;;;;;3.75;1.60;;;15.10;97.70;;;;;;5114281;28;20082;-77
2021/05/11 00:55:47;;;;;;;4.15;2.03;;;15.00;97.90;;;;;;5114505;28;20127;-75
2021/05/11 00:58:14;;;;;;;4.30;1.67;;;14.90;98.00;;;;;;5113640;28;20186;-76
2021/05/11 01:00:41;;;;;;;2.97;1.30;;;14.90;98.00;;;;;;5114675;28;20043;-76
2021/05/11 01:03:08;;;;;;;2.00;1.10;;;14.90;98.20;;;;;;5114338;28;20075;-78
2021/05/11 01:05:35;;;;;;;2.00;0.98;;;14.90;98.40;;;;;;5112836;28;20079;-77
2021/05/11 01:08:02;;;;;;;1.98;1.00;;;14.90;98.40;;;;;;5119148;28;20074;-76
2021/05/11 01:10:29;;;;;;;2.58;1.00;;;15.00;98.40;;;;;;5118311;28;20504;-78
2021/05/11 01:12:56;;;;;;;2.25;1.10;;;15.00;98.40;;;;;;5115058;28;20054;-78
2021/05/11 01:15:23;;;;;;;2.35;1.05;;;15.00;98.40;;;;;;5120582;28;20075;-78
2021/05/11 01:17:53;;;;;;;2.17;1.00;;;15.10;98.30;;;;;;5120096;28;20048;-78
2021/05/11 01:20:32;;;;;;;2.17;0.98;;;15.10;98.20;;;;;;5121541;28;20047;-78
2021/05/11 01:23:27;;;;;;;2.20;1.08;;;15.20;98.10;;;;;;5090890;28;20044;-77
2021/05/11 01:26:01;;;;;;;2.15;0.98;;;15.20;98.10;;;;;;5111847;28;20111;-76
2021/05/11 01:28:32;;;;;;;2.97;1.10;;;15.20;97.90;;;;;;5119619;28;20473;-78
2021/05/11 01:50:17;;;;;;;2.92;1.02;;;15.10;98.20;;;;;;5112352;28;19981;-78
2021/05/11 01:52:57;;;;;;;1.65;0.80;;;15.10;98.00;;;;;;5114130;28;20052;-77
2021/05/11 01:55:48;;;;;;;1.50;0.80;;;15.10;98.00;;;;;;5113488;28;20039;-79
2021/05/11 02:22:59;;;;;;;1.75;0.75;;;14.90;98.10;;;;;;5114102;28;20055;-77
2021/05/11 02:25:25;;;;;;;1.80;0.98;;;14.80;98.10;;;;;;5117524;28;20082;-78
2021/05/11 02:27:53;;;;;;;3.13;1.60;;;14.70;98.20;;;;;;5114240;28;20508;-78
2021/05/11 02:30:20;;;;;;;3.65;1.85;;;14.50;98.50;;;;;;5113662;28;20082;-77
2021/05/11 02:32:47;;;;;;;2.97;1.70;;;14.50;98.80;;;;;;5113735;28;20439;-77
2021/05/11 02:35:16;;;;;;;3.85;2.03;;;14.40;99.10;;;;;;5113653;28;20075;-77
2021/05/11 02:37:44;;;;;;;8.52;7.72;;;14.40;99.20;;;;;;5113278;28;20110;-77
2021/05/11 02:40:13;;;;;;;10.77;9.68;;;14.30;99.30;;;;;;5113206;28;20048;-78
2021/05/11 02:42:42;;;;;;;11.00;9.90;;;14.30;99.50;;;;;;5113740;28;20465;-77
2021/05/11 02:45:13;;;;;;;7.63;6.15;;;14.30;99.50;;;;;;5113762;28;20049;-78
2021/05/11 02:47:48;;;;;;;4.20;3.20;;;14.20;99.60;;;;;;5113275;28;20052;-77
2021/05/11 02:50:16;;;;;;;3.75;2.65;;;14.20;99.70;;;;;;5116577;28;20047;-78
2021/05/11 02:52:43;;;;;;;4.13;2.55;;;14.10;99.80;;;;;;5117775;28;20565;-78
2021/05/11 02:55:10;;;;;;;5.05;2.97;;;14.20;99.90;;;;;;5123750;28;20086;-78
2021/05/11 02:57:36;;;;;;;6.28;3.40;;;14.20;99.90;;;;;;5124190;28;20043;-76
2021/05/11 03:00:07;;;;;;;4.85;2.80;;;14.20;99.90;;;;;;5123812;28;20157;-78
2021/05/11 03:02:34;;;;;;;4.55;2.60;;;14.20;99.90;;;;;;5121665;28;20040;-78
2021/05/11 03:05:02;;;;;;;4.88;2.70;;;14.20;99.90;;;;;;5117733;28;20111;-76
2021/05/11 03:07:28;;;;;;;4.13;2.90;;;14.30;99.90;;;;;;5114508;28;20075;-78
2021/05/11 03:09:55;;;;;;;4.20;2.80;;;14.30;99.90;;;;;;5115039;28;20119;-78
2021/05/11 03:12:22;;;;;;;5.45;3.83;;;14.20;99.90;;;;;;5115447;28;20039;-78
2021/05/11 03:14:48;;;;;;;4.57;2.90;;;14.20;99.80;;;;;;5115325;28;20051;-78
2021/05/11 03:17:15;;;;;;;4.25;2.80;;;14.20;99.80;;;;;;5092990;28;20048;-79
2021/05/11 03:19:43;;;;;;;3.63;2.35;;;14.20;99.90;;;;;;5105744;28;20116;-78
2021/05/11 03:22:10;;;;;;;3.40;1.80;;;14.20;99.90;;;;;;5113755;28;20135;-77
2021/05/11 03:24:39;;;;;;;3.30;2.08;;;14.20;99.90;;;;;;5114413;28;20618;-76
2021/05/11 03:27:06;;;;;;;4.25;2.50;;;14.20;99.90;;;;;;5114609;28;20058;-78
2021/05/11 03:29:32;;;;;;;4.00;2.65;;;14.30;99.80;;;;;;5114027;28;20086;-77
2021/05/11 03:31:59;;;;;;;2.97;1.90;;;14.20;99.90;;;;;;5114126;28;20510;-77
2021/05/11 03:34:26;;;;;;;4.13;2.53;;;14.20;99.70;;;;;;5113522;28;20079;-76
2021/05/11 03:36:53;;;;;;;4.65;2.90;;;14.20;99.80;;;;;;5113672;28;20130;-76
2021/05/11 03:39:20;;;;;;;4.20;2.95;;;14.10;99.80;;;;;;5095527;28;20126;-77
2021/05/11 03:41:50;;;;;;;4.75;3.00;;;14.10;99.90;;;;;;5096967;28;20423;-76
2021/05/11 03:44:23;;;;;;;4.78;2.65;;;14.10;99.90;;;;;;5120853;28;20047;-77
2021/05/11 03:46:49;;;;;;;3.75;2.58;;;14.20;99.90;;;;;;5105182;28;20050;-77
2021/05/11 03:49:16;;;;;;;4.70;3.10;;;14.10;99.90;;;;;;5117093;28;20083;-78
2021/05/11 03:51:43;;;;;;;4.35;2.78;;;14.20;99.90;;;;;;5114649;28;20541;-78
2021/05/11 03:54:11;;;;;;;4.85;2.67;;;14.20;99.90;;;;;;5113667;28;20089;-76
2021/05/11 03:56:38;;;;;;;4.80;3.20;;;14.30;99.90;;;;;;5113781;28;20079;-76
2021/05/11 03:59:05;;;;;;;4.40;2.95;;;14.30;99.90;;;;;;5113379;28;20081;-79
2021/05/11 04:01:32;;;;;;;4.22;2.80;;;14.40;99.90;;;;;;5113317;27;20075;-77
2021/05/11 04:04:00;;;;;;;4.63;3.20;;;14.40;99.90;;;;;;5115334;28;20130;-78
2021/05/11 04:06:26;;;;;;;4.35;3.22;;;14.40;99.90;;;;;;5097076;28;20086;-79
2021/05/11 04:08:55;;;;;;;4.55;2.95;;;14.40;99.80;;;;;;5096863;28;20130;-77
2021/05/11 04:11:57;;;;;;;4.57;3.47;;;14.40;99.80;;;;;;5097684;28;20048;-77
2021/05/11 04:17:11;;;;;;;4.90;2.97;;;14.50;99.60;;;;;;5070699;28;20127;-78
2021/05/11 04:19:37;;;;;;;5.43;3.33;;;14.50;99.60;;;;;;5115284;28;20083;-78
2021/05/11 04:22:04;;;;;;;4.65;3.20;;;14.50;99.50;;;;;;5096403;28;20496;-78
2021/05/11 04:24:31;;;;;;;4.72;3.40;;;14.50;99.50;;;;;;5115774;28;20441;-78
2021/05/11 04:26:59;;;;;;;5.45;3.95;;;14.50;99.50;;;;;;5097992;28;20051;-79
2021/05/11 04:29:27;;;;;;;6.70;3.80;;;14.50;99.40;;;;;;5107895;28;20132;-79
2021/05/11 04:31:53;;;;;;;4.65;3.35;;;14.50;99.40;;;;;;5113435;28;20043;-78
2021/05/11 04:34:20;;;;;;;6.53;3.63;;;14.50;99.40;;;;;;5116010;28;20111;-78
2021/05/11 04:36:47;;;;;;;5.65;3.63;;;14.50;99.40;;;;;;5115962;28;20094;-78
2021/05/11 04:39:13;;;;;;;5.38;3.53;;;14.40;99.40;;;;;;5116670;28;20080;-79
2021/05/11 04:41:40;;;;;;;4.95;3.28;;;14.40;99.50;;;;;;5116516;28;20083;-78
2021/05/11 04:44:08;;;;;;;5.30;3.25;;;14.40;99.60;;;;;;5115613;28;20456;-79
2021/05/11 04:46:47;;;;;;;6.03;3.22;;;14.40;99.80;;;;;;5115287;28;20134;-79
2021/05/11 04:49:14;;;;;;;4.63;3.03;;;14.40;99.70;;;;;;5114899;28;20143;-77
2021/05/11 04:51:40;;;;;;;5.43;3.25;;;14.50;99.80;;;;;;5114650;28;20071;-78
2021/05/11 04:54:07;;;;;;;5.53;2.83;;;14.50;99.70;;;;;;5115640;28;20048;-80
2021/05/11 04:56:34;;;;;;;6.35;3.40;;;14.50;99.60;;;;;;5115377;28;20093;-77
2021/05/11 04:59:00;;;;;;;4.07;2.60;;;14.60;99.60;;;;;;5115028;28;20126;-78
2021/05/11 05:01:28;;;;;;;4.35;2.95;;;14.60;99.60;;;;;;5115589;28;20070;-78
2021/05/11 05:03:57;;;;;;;4.60;3.03;;;14.60;99.60;;;;;;5114924;28;20050;-79
2021/05/11 05:06:24;;;;;;;5.05;3.20;;;14.70;99.60;;;;;;5115907;28;20067;-79
2021/05/11 05:08:50;;;;;;;5.82;3.72;;;14.70;99.40;;;;;;5115447;28;20086;-76
2021/05/11 05:11:17;;;;;;;6.50;4.10;;;14.70;99.30;;;;;;5115045;28;20473;-78
2021/05/11 05:13:44;;;;;;;5.95;3.95;;;14.70;99.20;;;;;;5116026;28;20051;-78
2021/05/11 05:16:11;;;;;;;6.50;4.28;;;14.70;99.30;;;;;;5115491;28;20043;-78
2021/05/11 05:18:38;;;;;;;7.35;4.95;;;14.60;99.30;;;;;;5114814;28;20078;-78
2021/05/11 05:21:07;;;;;;;6.68;3.95;;;14.60;99.20;;;;;;5115773;28;20101;-79
2021/05/11 05:23:40;;;;;;;6.10;4.00;;;14.60;99.40;;;;;;5117180;28;20048;-78
2021/05/11 05:26:09;;;;;;;6.60;4.25;;;14.60;99.40;;;;;;5115739;28;20048;-80
2021/05/11 05:28:38;;;;;;;8.93;5.80;;;14.50;99.40;;;;;;5116580;28;20047;-78
2021/05/11 05:31:05;;;;;;;8.20;5.07;;;14.50;99.40;;;;;;5114138;28;20100;-77
2021/05/11 05:33:33;;;;;;;7.22;5.10;;;14.50;99.60;;;;;;5114600;28;20091;-79
2021/05/11 05:36:00;;;;;;;8.63;5.30;;;14.50;99.70;;;;;;5125079;28;20071;-78
2021/05/11 05:38:28;;;;;;;8.82;5.93;;;14.50;99.80;;;;;;5125728;28;20043;-77
2021/05/11 05:41:00;;;;;;;8.82;5.78;;;14.50;99.90;;;;;;5117656;28;20524;-78
2021/05/11 05:43:27;;;;;;;9.18;5.90;;;14.50;99.90;;;;;;5115254;28;20378;-78
2021/05/11 05:45:54;;;;;;;9.65;6.10;;;14.50;99.90;;;;;;5115250;28;20450;-79
2021/05/11 05:48:21;;;;;;;10.07;6.45;;;14.50;99.80;;;;;;5114528;28;20059;-77
2021/05/11 05:50:54;;;;;;;9.27;5.90;;;14.50;99.80;;;;;;5115162;28;20052;-78
2021/05/11 05:53:25;;;;;;;11.00;6.78;;;14.50;99.90;;;;;;5114485;28;20454;-78
2021/05/11 05:55:51;;;;;;;11.10;7.30;;;14.50;99.80;;;;;;5114265;28;20135;-78
2021/05/11 05:58:18;;;;;;;9.93;6.63;;;14.50;99.80;;;;;;5114371;28;20101;-78
2021/05/11 06:00:46;;;;;;;10.00;6.80;;;14.50;99.90;;;;;;5122684;28;20052;-77
2021/05/11 06:03:32;;;;;;;10.95;7.63;;;14.50;99.90;;;;;;5115355;28;20127;-78
2021/05/11 06:05:59;;;;;;;12.00;7.47;;;14.50;99.90;;;;;;5115412;28;20059;-79
2021/05/11 06:08:29;;;;;;;10.43;6.75;;;14.40;99.90;;;;;;5114280;28;20043;-78
2021/05/11 06:10:59;;;;;;;9.35;5.90;;;14.40;99.90;;;;;;5114727;28;20052;-75
2021/05/11 06:13:32;;;;;;;7.60;5.03;;;14.40;99.90;;;;;;5123847;28;20048;-75
2021/05/11 06:18:43;;;;;;;10.95;6.28;;;14.40;99.90;;;;;;5124161;28;20462;-76
2021/05/11 06:21:10;;;;;;;10.20;5.93;;;14.50;99.90;;;;;;5099488;28;20126;-77
2021/05/11 06:23:38;;;;;;;9.95;6.47;;;14.50;99.90;;;;;;5096899;28;20464;-77
2021/05/11 06:26:05;;;;;;;11.50;6.95;;;14.50;99.90;;;;;;5100175;28;20079;-76
2021/05/11 06:28:37;;;;;;;12.60;7.90;;;14.50;99.90;;;;;;5118479;28;20123;-77
2021/05/11 06:31:03;;;;;;;12.82;7.72;;;14.50;99.90;;;;;;5100328;28;20047;-77
2021/05/11 06:33:30;;;;;;;10.60;6.97;;;14.50;99.90;;;;;;5117103;28;20127;-78
2021/05/11 06:35:56;;;;;;;9.68;6.10;;;14.50;99.90;;;;;;5117785;28;20054;-76
2021/05/11 06:38:23;;;;;;;10.55;6.65;;;14.60;99.90;;;;;;5117891;28;20056;-77
2021/05/11 06:40:50;;;;;;;11.23;6.90;;;14.60;99.90;;;;;;5117667;28;20075;-77
2021/05/11 06:43:23;;;;;;;12.02;7.45;;;14.60;99.90;;;;;;5117534;28;20111;-78
2021/05/11 06:48:53;;;;;;;11.27;7.50;;;14.70;99.90;;;;;;5116812;28;20048;-75
2021/05/11 06:54:05;;;;;;;13.02;8.57;;;14.80;99.90;;;;;;5117425;28;20134;-77
2021/05/11 06:56:33;;;;;;;10.65;7.25;;;14.80;99.50;;;;;;5117291;28;20131;-77
2021/05/11 06:58:59;;;;;;;9.98;6.65;;;14.90;99.60;;;;;;5117314;28;20051;-78
2021/05/11 07:01:26;;;;;;;11.55;7.70;;;14.90;99.70;;;;;;5119782;28;20081;-78
2021/05/11 07:03:53;;;;;;;11.05;6.88;;;14.90;99.70;;;;;;5117676;28;20505;-76
2021/05/11 07:06:19;;;;;;;10.95;7.40;;;14.90;99.70;;;;;;5116293;28;20501;-77
2021/05/11 07:08:49;;;;;;;9.68;6.20;;;15.00;99.70;;;;;;5116766;28;20051;-77
2021/05/11 07:13:05;;;;;;;10.45;6.30;;;15.00;99.50;;;;;;5116491;28;20082;-76
2021/05/11 07:14:17;;;;;;;9.20;6.00;;;15.00;99.30;;;;;;5120918;28;20093;-76
2021/05/11 07:16:44;;;;;;;10.40;6.13;;;15.00;99.30;;;;;;5119525;28;20138;-78
2021/05/11 07:19:10;;;;;;;10.80;6.57;;;15.00;99.20;;;;;;5121086;28;20039;-78
2021/05/11 07:21:37;;;;;;;9.95;6.03;;;15.10;99.10;;;;;;5120846;28;20417;-77
2021/05/11 07:24:05;;;;;;;10.32;5.75;;;15.10;99.10;;;;;;5120970;28;20048;-76
2021/05/11 07:26:32;;;;;;;9.85;5.90;;;15.10;99.10;;;;;;5125271;28;20052;-79
2021/05/11 07:29:09;;;;;;;10.05;6.20;;;15.10;99.10;;;;;;5120770;28;20043;-78
2021/05/11 07:31:37;;;;;;;10.15;6.13;;;15.20;99.00;;;;;;5121926;28;20134;-77
2021/05/11 07:34:05;;;;;;;9.85;6.45;;;15.20;99.00;;;;;;5117993;28;20081;-77
2021/05/11 07:36:33;;;;;;;12.10;6.60;;;15.30;99.00;;;;;;5117834;28;20055;-77
2021/05/11 07:39:00;;;;;;;12.52;6.35;;;15.30;98.80;;;;;;5118204;28;20051;-78
2021/05/11 07:41:27;;;;;;;11.55;6.93;;;15.30;98.70;;;;;;5121862;28;20447;-78
2021/05/11 07:43:56;;;;;;;12.73;7.60;;;15.40;98.60;;;;;;5124152;28;20040;-77
2021/05/11 07:46:38;;;;;;;9.95;6.60;;;15.30;98.50;;;;;;5124432;28;20052;-77
2021/05/11 07:49:36;;;;;;;11.85;7.32;;;15.30;98.50;;;;;;5123728;28;20055;-77
2021/05/11 08:06:27;;;;;;;11.57;6.20;;;15.40;98.70;;;;;;5097513;28;20039;-74
2021/05/11 08:14:29;;;;;;;10.18;6.60;;;15.40;98.50;;;;;;5115043;28;20147;-79
2021/05/11 08:16:58;;;;;;;10.02;6.20;;;15.40;98.50;;;;;;5115455;28;20499;-77
2021/05/11 08:19:43;;;;;;;10.63;6.60;;;15.40;98.50;;;;;;5115197;28;20039;-78
2021/05/11 08:27:57;;;;;;;8.00;4.90;;;15.40;98.20;;;;;;5052749;28;20060;-78
2021/05/11 08:30:25;;;;;;;8.30;4.65;;;15.50;98.40;;;;;;5088889;28;20039;-76
2021/05/11 08:32:52;;;;;;;8.48;5.15;;;15.50;98.70;;;;;;5115873;28;20067;-75
2021/05/11 08:35:18;;;;;;;8.18;5.03;;;15.60;98.40;;;;;;5114767;28;20082;-78
2021/05/11 08:37:46;;;;;;;8.90;4.95;;;15.70;98.30;;;;;;5115538;28;20043;-77
2021/05/11 08:40:14;;;;;;;6.63;4.18;;;15.90;98.10;;;;;;5115330;28;20094;-77
2021/05/11 08:42:40;;;;;;;7.25;5.00;;;15.90;98.20;;;;;;5115111;28;20044;-78
2021/05/11 08:45:10;;;;;;;7.93;5.03;;;16.00;98.00;;;;;;5114422;28;20147;-78
2021/05/11 08:47:48;;;;;;;7.65;4.68;;;16.10;97.90;;;;;;5113863;28;20497;-79
2021/05/11 08:50:19;;;;;;;7.85;4.78;;;16.10;97.70;;;;;;5114228;28;20043;-77
2021/05/11 08:53:00;;;;;;;7.63;4.50;;;16.20;97.60;;;;;;5115308;28;20058;-78
2021/05/11 08:55:34;;;;;;;7.65;4.40;;;16.30;97.10;;;;;;5115134;28;20546;-79
2021/05/11 09:06:37;;;;;;;9.23;5.93;;;16.50;96.40;;;;;;5116832;28;20534;-79
2021/05/11 09:09:24;;;;;;;10.60;6.80;;;16.50;96.50;;;;;;5081423;28;20071;-78
2021/05/11 09:25:57;;;;;;;7.45;4.03;;;16.70;95.80;;;;;;5114477;28;20054;-79
2021/05/11 09:28:32;;;;;;;6.63;4.35;;;16.80;95.80;;;;;;5114370;28;20401;-77
2021/05/11 09:31:07;;;;;;;6.65;4.03;;;16.80;95.70;;;;;;5114386;28;20044;-79
2021/05/11 09:33:37;;;;;;;6.43;4.03;;;16.70;95.40;;;;;;5114281;28;20130;-78
2021/05/11 10:37:26;;;;;;;6.28;4.03;;;17.00;95.10;;;;;;5117459;28;20445;-77
2021/05/11 10:48:43;;;;;;;6.68;4.43;;;16.90;95.30;;;;;;5103948;28;20168;-77
2021/05/11 10:51:26;;;;;;;7.88;5.40;;;16.90;95.40;;;;;;5101273;28;20044;-78
2021/05/11 10:54:01;;;;;;;6.80;4.68;;;16.80;95.10;;;;;;5111715;28;20047;-78
2021/05/11 10:57:03;;;;;;;;;;;16.80;95.20;;;;;;5080040;28;20373;-78
2021/05/11 11:05:40;;;;;;;5.57;4.18;;;17.10;95.50;;;;;;5113474;28;20456;-78
2021/05/11 11:08:27;;;;;;;6.13;4.18;;;17.20;95.50;;;;;;5095269;28;20043;-77
2021/05/11 11:11:10;;;;;;;7.22;4.88;;;17.30;95.10;;;;;;5112379;28;20086;-79
2021/05/11 11:13:42;;;;;;;5.10;3.50;;;17.40;94.80;;;;;;5080852;28;20044;-76
2021/05/11 11:16:09;;;;;;;6.22;4.32;;;17.50;94.80;;;;;;5114989;28;20450;-77
2021/05/11 11:18:37;;;;;;;6.45;4.35;;;17.50;94.30;;;;;;5101879;28;20047;-76
2021/05/11 11:21:20;;;;;;;7.72;4.47;;;17.50;94.10;;;;;;5106434;28;20055;-76
2021/05/11 11:23:49;;;;;;;5.90;3.33;;;17.50;93.80;;;;;;5124355;28;20052;-80
2021/05/11 11:26:24;;;;;;;5.63;3.50;;;17.60;94.20;;;;;;5121249;28;20039;-81
2021/05/11 11:28:59;;;;;;;4.88;3.20;;;17.70;93.80;;;;;;5113689;28;20075;-78
2021/05/11 11:31:28;;;;;;;5.20;3.20;;;17.80;93.70;;;;;;5114629;28;20040;-78
2021/05/11 11:34:18;;;;;;;5.28;3.20;;;17.90;93.60;;;;;;5114392;28;20075;-80
2021/05/11 11:36:51;;;;;;;4.75;2.97;;;18.00;93.60;;;;;;5096200;28;20139;-78
2021/05/11 11:39:21;;;;;;;4.95;3.20;;;18.10;93.30;;;;;;5114206;28;20546;-79
2021/05/11 11:41:49;;;;;;;4.97;3.00;;;18.20;93.10;;;;;;5117828;28;20166;-78
2021/05/11 11:44:16;;;;;;;4.75;3.28;;;18.30;92.90;;;;;;5096983;28;20507;-79
2021/05/11 11:46:43;;;;;;;4.55;2.83;;;18.40;92.80;;;;;;5095809;28;20058;-79
2021/05/11 11:49:17;;;;;;;4.47;2.58;;;18.50;92.60;;;;;;5113746;28;20123;-80
2021/05/11 11:51:44;;;;;;;4.93;2.60;;;18.50;92.60;;;;;;5113635;28;20126;-80
2021/05/11 11:54:21;;;;;;;4.45;2.40;;;18.60;92.30;;;;;;5113259;28;20044;-79
2021/05/11 11:59:33;;;;;;;4.82;2.95;;;18.60;92.50;;;;;;5113570;28;20240;-80
2021/05/11 12:02:02;;;;;;;4.47;2.67;;;18.60;92.20;;;;;;5112734;28;20044;-78
2021/05/11 12:04:30;;;;;;;4.45;2.45;;;18.60;91.80;;;;;;5113067;28;20107;-78
2021/05/11 12:07:03;;;;;;;4.30;2.60;;;18.70;92.10;;;;;;5079091;28;20047;-80
2021/05/11 12:09:30;;;;;;;4.30;2.55;;;18.70;91.90;;;;;;5096769;28;20055;-78
2021/05/11 12:12:00;;;;;;;3.97;2.30;;;18.70;91.90;;;;;;5113430;28;20093;-78
2021/05/11 12:14:27;;;;;;;5.28;2.80;;;18.70;91.90;;;;;;5095163;28;20092;-81
2021/05/11 12:16:54;;;;;;;4.10;2.50;;;18.70;91.70;;;;;;5085605;28;20541;-79
2021/05/11 12:19:29;;;;;;;3.67;2.22;;;18.70;91.80;;;;;;5102226;28;20089;-79
2021/05/11 12:22:00;;;;;;;4.07;2.50;;;18.70;91.60;;;;;;5110579;28;20056;-78
2021/05/11 12:24:29;;;;;;;4.50;3.10;;;18.70;91.50;;;;;;5111233;28;20043;-78
2021/05/11 12:27:18;;;;;;;4.85;3.00;;;18.70;91.50;;;;;;5110804;28;20146;-79
2021/05/11 12:30:02;;;;;;;5.10;3.20;;;18.70;91.60;;;;;;5106879;28;20047;-78
2021/05/11 12:32:29;;;;;;;5.93;3.13;;;18.60;91.70;;;;;;5108201;28;20481;-78
2021/05/11 12:35:08;;;;;;;4.53;3.00;;;18.60;91.70;;;;;;5109411;28;20058;-79
2021/05/11 12:37:50;;;;;;;5.65;2.80;;;18.60;91.70;;;;;;5112065;28;20043;-80
2021/05/11 12:40:32;;;;;;;5.38;2.70;;;18.60;92.00;;;;;;5075216;28;20521;-81
2021/05/11 12:43:02;;;;;;;5.88;3.97;;;18.70;92.10;;;;;;5092437;28;20126;-81
2021/05/11 12:45:35;;;;;;;6.72;4.45;;;18.70;92.40;;;;;;5110265;28;20039;-78
2021/05/11 12:48:04;;;;;;;6.03;3.80;;;18.80;92.30;;;;;;5110788;28;20060;-79
2021/05/11 12:50:35;;;;;;;6.57;4.10;;;18.90;91.90;;;;;;5109467;28;20078;-79
2021/05/11 12:53:32;;;;;;;6.22;3.90;;;19.00;91.70;;;;;;5109580;28;20063;-81
2021/05/11 12:56:15;;;;;;;6.10;3.80;;;19.00;91.70;;;;;;5110799;28;20048;-79
2021/05/11 12:58:59;;;;;;;6.35;4.00;;;19.00;91.60;;;;;;5097822;28;20044;-79
2021/05/11 13:01:29;;;;;;;5.38;3.50;;;18.90;91.80;;;;;;5092285;28;20189;-78
2021/05/11 13:21:16;;;;;;;8.02;4.88;;;18.50;92.70;;;;;;5113462;28;20054;-79
2021/05/11 13:26:30;;;;;;;8.82;5.47;;;18.50;93.00;;;;;;5111782;28;20051;-75
2021/05/11 13:28:59;;;;;;;8.10;5.47;;;18.50;93.20;;;;;;5110881;28;20044;-76
2021/05/11 13:31:31;;;;;;;8.90;4.72;;;18.50;93.20;;;;;;5110747;28;20055;-75
2021/05/11 13:34:08;;;;;;;7.53;4.65;;;18.50;93.40;;;;;;5110338;28;20566;-77
2021/05/11 13:36:36;;;;;;;8.25;5.22;;;18.50;93.70;;;;;;5110885;28;20071;-76
2021/05/11 13:39:06;;;;;;;8.30;4.72;;;18.50;94.00;;;;;;5111535;28;20126;-78
2021/05/11 13:41:33;;;;;;;7.60;4.93;;;18.60;94.60;;;;;;5112128;28;20059;-76
2021/05/11 13:44:00;;;;;;;9.63;6.15;;;18.60;94.60;;;;;;5110672;28;20485;-77
2021/05/11 13:46:28;;;;;;;7.85;5.20;;;18.50;94.90;;;;;;5093532;28;20050;-75
2021/05/11 13:48:57;;;;;;;8.00;5.38;;;18.50;95.00;;;;;;5112348;28;20051;-75
2021/05/11 13:51:26;;;;;;;9.80;6.10;;;18.50;95.20;;;;;;5111798;28;20048;-79
2021/05/11 13:53:57;;;;;;;10.73;6.60;;;18.50;95.40;;;;;;5112560;28;20480;-77
2021/05/11 13:56:38;;;;;;;10.13;6.28;;;18.40;95.80;;;;;;5112144;28;20062;-79
2021/05/11 14:04:35;;;;;;;7.05;4.45;;;18.30;96.10;;;;;;5110753;28;20040;-76
2021/05/11 14:07:02;;;;;;;6.15;4.68;;;18.20;96.10;;;;;;5107503;28;20079;-75
2021/05/11 14:09:29;;;;;;;6.63;4.50;;;18.10;95.90;;;;;;5108596;28;20044;-78
2021/05/11 14:11:55;;;;;;;5.15;3.80;;;18.00;96.10;;;;;;5107384;28;20047;-76
2021/05/11 14:14:22;;;;;;;4.80;3.30;;;17.90;96.40;;;;;;5106812;28;20090;-76
2021/05/11 14:16:50;;;;;;;4.93;3.33;;;17.80;96.60;;;;;;5106826;28;20146;-76
2021/05/11 14:19:18;;;;;;;4.97;3.30;;;17.70;96.90;;;;;;5107209;28;20194;-76
2021/05/11 14:21:45;;;;;;;4.75;3.00;;;17.60;97.20;;;;;;5106092;28;20050;-75
2021/05/11 14:24:12;;;;;;;5.43;3.50;;;17.50;97.30;;;;;;5105797;28;20572;-75
2021/05/11 14:26:40;;;;;;;6.13;2.72;;;17.40;97.40;;;;;;5106189;28;20117;-76
2021/05/11 14:29:07;;;;;;;4.80;2.97;;;17.30;97.70;;;;;;5106710;28;20043;-75
2021/05/11 14:31:34;;;;;;;4.13;2.88;;;17.30;97.90;;;;;;5106749;28;20358;-76
2021/05/11 14:34:03;;;;;;;6.03;3.47;;;17.20;98.10;;;;;;5106976;28;20127;-75
2021/05/11 14:36:29;;;;;;;5.32;3.88;;;17.20;97.80;;;;;;5105454;28;20130;-77
2021/05/11 14:38:56;;;;;;;4.60;3.47;;;17.10;97.70;;;;;;5105580;28;20075;-78
2021/05/11 14:41:23;;;;;;;4.47;3.47;;;17.10;97.70;;;;;;5106599;28;20529;-77
2021/05/11 14:43:50;;;;;;;5.70;3.90;;;17.00;97.80;;;;;;5089985;28;20044;-78
2021/05/11 14:46:16;;;;;;;4.55;3.47;;;16.90;97.90;;;;;;5113393;28;20126;-77
2021/05/11 14:48:43;;;;;;;5.65;4.15;;;16.90;98.20;;;;;;5113757;28;20139;-77
2021/05/11 14:51:10;;;;;;;6.97;4.32;;;16.80;98.20;;;;;;5113795;28;20539;-77
2021/05/11 14:53:38;;;;;;;7.25;4.60;;;16.70;98.20;;;;;;5111887;28;20126;-78
2021/05/11 14:56:08;;;;;;;6.85;4.72;;;16.70;98.20;;;;;;5113942;28;20043;-79
2021/05/11 14:58:35;;;;;;;5.70;4.38;;;16.60;98.10;;;;;;5113169;28;20048;-78
2021/05/11 15:01:02;;;;;;;6.43;4.93;;;16.50;98.30;;;;;;5113525;28;20194;-76
2021/05/11 15:03:28;;;;;;;6.55;5.13;;;16.50;98.40;;;;;;5113830;28;20113;-76
2021/05/11 15:05:55;;;;;;;6.65;4.75;;;16.40;98.30;;;;;;5113052;28;20126;-77
2021/05/11 15:08:22;;;;;;;7.80;5.22;;;16.40;98.50;;;;;;5113913;28;20510;-77
2021/05/11 15:10:49;;;;;;;6.50;4.82;;;16.30;98.60;;;;;;5113022;28;20136;-78
2021/05/11 15:13:17;;;;;;;7.50;5.47;;;16.30;98.90;;;;;;5114699;28;20127;-77
2021/05/11 15:15:48;;;;;;;7.90;5.25;;;16.20;99.20;;;;;;5115749;28;20057;-76
2021/05/11 15:18:15;;;;;;;8.60;5.22;;;16.20;99.40;;;;;;5114353;28;20055;-76
2021/05/11 15:20:42;;;;;;;8.02;5.78;;;16.10;99.50;;;;;;5114803;28;20112;-77
2021/05/11 15:23:09;;;;;;;7.88;4.85;;;16.10;99.70;;;;;;5114883;28;20130;-75
2021/05/11 15:25:36;;;;;;;6.93;5.20;;;16.00;99.90;;;;;;5114791;28;20047;-77
2021/05/11 15:28:04;;;;;;;7.30;4.65;;;16.00;99.90;;;;;;5113005;28;20398;-78
2021/05/11 15:30:34;;;;;;;9.73;5.30;;;15.90;99.90;;;;;;5112993;28;20075;-78
2021/05/11 15:33:02;;;;;;;6.30;5.07;;;15.90;99.90;;;;;;5104728;28;20086;-79
2021/05/11 15:35:30;;;;;;;7.35;4.95;;;15.80;99.90;;;;;;5105056;27;20408;-79
2021/05/11 15:37:59;;;;;;;6.82;4.60;;;15.60;99.90;;;;;;5094393;28;20075;-78
2021/05/11 15:40:29;;;;;;;6.25;4.90;;;15.50;99.90;;;;;;5101356;27;20093;-78
2021/05/11 15:42:57;;;;;;;6.20;4.65;;;15.40;99.90;;;;;;5110569;28;20453;-77
2021/05/11 15:45:26;;;;;;;6.22;4.55;;;15.30;99.90;;;;;;5111692;28;20082;-78
2021/05/11 15:47:53;;;;;;;5.40;4.30;;;15.30;99.90;;;;;;5111368;28;20059;-78
2021/05/11 15:50:24;;;;;;;7.03;4.93;;;15.20;99.90;;;;;;5106274;28;20044;-77
2021/05/11 15:53:00;;;;;;;7.85;4.88;;;15.20;99.90;;;;;;5114925;28;20097;-78
2021/05/11 15:55:29;;;;;;;6.57;4.60;;;15.10;99.90;;;;;;5122652;27;20054;-78
2021/05/11 15:57:57;;;;;;;6.88;4.50;;;15.00;99.90;;;;;;5099202;28;20516;-77
2021/05/11 16:00:23;;;;;;;6.45;4.30;;;14.90;99.90;;;;;;5101175;28;20142;-77
2021/05/11 16:02:50;;;;;;;6.22;4.60;;;14.80;99.90;;;;;;5108801;28;20135;-78
2021/05/11 16:05:19;;;;;;;6.72;4.30;;;14.80;99.90;;;;;;5107626;28;20071;-77
2021/05/11 16:07:46;;;;;;;5.53;3.92;;;14.70;99.90;;;;;;5106935;27;20074;-78
2021/05/11 16:10:14;;;;;;;6.13;3.20;;;14.70;99.90;;;;;;5067692;28;20070;-77
2021/05/11 16:12:41;;;;;;;6.45;3.90;;;14.70;99.90;;;;;;5104295;28;20902;-78
2021/05/11 16:15:13;;;;;;;4.70;2.83;;;14.70;99.90;;;;;;5110831;28;20051;-79
2021/05/11 16:17:41;;;;;;;4.85;2.65;;;14.60;99.90;;;;;;5105993;28;20097;-78
2021/05/11 16:20:10;;;;;;;6.20;3.53;;;14.70;99.90;;;;;;5109977;28;20104;-77
2021/05/11 16:22:38;;;;;;;5.55;2.33;;;14.60;99.90;;;;;;5102476;27;20123;-77
2021/05/11 16:25:08;;;;;;;3.72;1.90;;;14.60;99.90;;;;;;5102438;28;20143;-78
2021/05/11 16:27:35;;;;;;;2.92;1.52;;;14.60;99.90;;;;;;5110136;27;20082;-79